sensor_id;sensor_type;location;lat;lon;timestamp;P1;durP1;ratioP1;P2;durP2;ratioP2
9524;SDS011;15940;48.734;9.112;2023-01-30T00:01:38;14.17;;;9.13;;
9524;SDS011;15940;48.734;9.112;2023-01-30T00:04:07;13.30;;;9.67;;
9524;SDS011;15940;48.734;9.112;2023-01-30T00:06:36;11.93;;;9.10;;
9524;SDS011;15940;48.734;9.112;2023-01-30T00:09:04;12.60;;;9.97;;
9524;SDS011;15940;48.734;9.112;2023-01-30T00:11:31;13.57;;;9.03;;
9524;SDS011;15940;48.734;9.112;2023-01-30T00:13:58;12.87;;;9.73;;
9524;SDS011;15940;48.734;9.112;2023-01-30T00:16:25;14.17;;;9.90;;
9524;SDS011;15940;48.734;9.112;2023-01-30T00:18:52;14.63;;;10.00;;
9524;SDS011;15940;48.734;9.112;2023-01-30T00:21:19;14.23;;;10.80;;
9524;SDS011;15940;48.734;9.112;2023-01-30T00:23:46;16.93;;;11.00;;
9524;SDS011;15940;48.734;9.112;2023-01-30T00:26:14;15.50;;;10.50;;
9524;SDS011;15940;48.734;9.112;2023-01-30T00:28:41;15.60;;;10.87;;
9524;SDS011;15940;48.734;9.112;2023-01-30T00:31:08;16.30;;;10.70;;
9524;SDS011;15940;48.734;9.112;2023-01-30T00:33:36;15.57;;;11.27;;
9524;SDS011;15940;48.734;9.112;2023-01-30T00:36:04;14.33;;;10.43;;
9524;SDS011;15940;48.734;9.112;2023-01-30T00:38:32;14.93;;;10.80;;
9524;SDS011;15940;48.734;9.112;2023-01-30T00:40:59;15.13;;;10.87;;
9524;SDS011;15940;48.734;9.112;2023-01-30T00:43:27;15.07;;;10.17;;
9524;SDS011;15940;48.734;9.112;2023-01-30T00:46:14;16.23;;;10.43;;
9524;SDS011;15940;48.734;9.112;2023-01-30T00:49:06;14.37;;;9.83;;
9524;SDS011;15940;48.734;9.112;2023-01-30T00:51:33;16.53;;;10.30;;
9524;SDS011;15940;48.734;9.112;2023-01-30T00:54:00;15.63;;;11.27;;
9524;SDS011;15940;48.734;9.112;2023-01-30T00:56:27;17.13;;;11.60;;
9524;SDS011;15940;48.734;9.112;2023-01-30T00:58:55;16.63;;;11.17;;
9524;SDS011;15940;48.734;9.112;2023-01-30T01:01:22;20.27;;;10.67;;
9524;SDS011;15940;48.734;9.112;2023-01-30T01:03:49;15.17;;;10.23;;
9524;SDS011;15940;48.734;9.112;2023-01-30T01:06:16;13.70;;;10.03;;
9524;SDS011;15940;48.734;9.112;2023-01-30T01:08:42;13.60;;;9.60;;
9524;SDS011;15940;48.734;9.112;2023-01-30T01:11:10;15.27;;;10.27;;
9524;SDS011;15940;48.734;9.112;2023-01-30T01:13:48;14.73;;;10.40;;
9524;SDS011;15940;48.734;9.112;2023-01-30T01:16:18;14.33;;;10.10;;
9524;SDS011;15940;48.734;9.112;2023-01-30T01:18:45;15.33;;;10.63;;
9524;SDS011;15940;48.734;9.112;2023-01-30T01:21:13;14.20;;;10.40;;
9524;SDS011;15940;48.734;9.112;2023-01-30T01:23:40;13.63;;;10.00;;
9524;SDS011;15940;48.734;9.112;2023-01-30T01:26:07;14.17;;;9.97;;
9524;SDS011;15940;48.734;9.112;2023-01-30T01:28:34;13.93;;;10.20;;
9524;SDS011;15940;48.734;9.112;2023-01-30T01:31:06;15.60;;;10.17;;
9524;SDS011;15940;48.734;9.112;2023-01-30T01:33:36;13.73;;;9.90;;
9524;SDS011;15940;48.734;9.112;2023-01-30T01:36:03;15.87;;;10.90;;
9524;SDS011;15940;48.734;9.112;2023-01-30T01:38:31;17.53;;;10.97;;
9524;SDS011;15940;48.734;9.112;2023-01-30T01:40:59;15.43;;;11.13;;
9524;SDS011;15940;48.734;9.112;2023-01-30T01:43:30;15.03;;;10.43;;
9524;SDS011;15940;48.734;9.112;2023-01-30T01:46:00;16.53;;;10.13;;
9524;SDS011;15940;48.734;9.112;2023-01-30T01:48:37;13.43;;;10.00;;
9524;SDS011;15940;48.734;9.112;2023-01-30T01:51:08;14.87;;;10.60;;
9524;SDS011;15940;48.734;9.112;2023-01-30T01:53:39;14.70;;;10.10;;
9524;SDS011;15940;48.734;9.112;2023-01-30T01:56:12;14.57;;;10.00;;
9524;SDS011;15940;48.734;9.112;2023-01-30T01:58:44;12.70;;;9.33;;
9524;SDS011;15940;48.734;9.112;2023-01-30T02:01:16;14.17;;;10.17;;
9524;SDS011;15940;48.734;9.112;2023-01-30T02:03:46;13.83;;;9.57;;
9524;SDS011;15940;48.734;9.112;2023-01-30T02:06:18;11.37;;;9.20;;
9524;SDS011;15940;48.734;9.112;2023-01-30T02:08:48;15.20;;;10.27;;
9524;SDS011;15940;48.734;9.112;2023-01-30T02:11:20;13.93;;;9.50;;
9524;SDS011;15940;48.734;9.112;2023-01-30T02:13:54;12.50;;;9.47;;
9524;SDS011;15940;48.734;9.112;2023-01-30T02:16:22;13.97;;;9.97;;
9524;SDS011;15940;48.734;9.112;2023-01-30T02:18:51;15.47;;;9.80;;
9524;SDS011;15940;48.734;9.112;2023-01-30T02:21:38;14.77;;;9.80;;
9524;SDS011;15940;48.734;9.112;2023-01-30T02:27:39;12.53;;;9.57;;
9524;SDS011;15940;48.734;9.112;2023-01-30T02:33:44;13.93;;;9.27;;
9524;SDS011;15940;48.734;9.112;2023-01-30T02:36:26;15.70;;;9.67;;
9524;SDS011;15940;48.734;9.112;2023-01-30T02:39:06;14.70;;;10.83;;
9524;SDS011;15940;48.734;9.112;2023-01-30T02:41:43;14.17;;;10.13;;
9524;SDS011;15940;48.734;9.112;2023-01-30T02:44:22;14.73;;;10.87;;
9524;SDS011;15940;48.734;9.112;2023-01-30T02:47:00;14.33;;;10.17;;
9524;SDS011;15940;48.734;9.112;2023-01-30T02:49:35;14.13;;;9.63;;
9524;SDS011;15940;48.734;9.112;2023-01-30T02:52:05;14.10;;;9.83;;
9524;SDS011;15940;48.734;9.112;2023-01-30T02:54:35;14.93;;;10.00;;
9524;SDS011;15940;48.734;9.112;2023-01-30T02:57:02;15.20;;;11.20;;
9524;SDS011;15940;48.734;9.112;2023-01-30T02:59:30;16.03;;;10.73;;
9524;SDS011;15940;48.734;9.112;2023-01-30T03:07:58;14.60;;;9.80;;
9524;SDS011;15940;48.734;9.112;2023-01-30T03:10:38;15.67;;;10.97;;
9524;SDS011;15940;48.734;9.112;2023-01-30T03:13:13;16.87;;;11.50;;
9524;SDS011;15940;48.734;9.112;2023-01-30T03:15:47;18.80;;;12.20;;
9524;SDS011;15940;48.734;9.112;2023-01-30T03:18:20;17.83;;;11.33;;
9524;SDS011;15940;48.734;9.112;2023-01-30T03:20:48;16.33;;;11.20;;
9524;SDS011;15940;48.734;9.112;2023-01-30T03:23:15;18.03;;;11.17;;
9524;SDS011;15940;48.734;9.112;2023-01-30T03:25:42;17.67;;;12.03;;
9524;SDS011;15940;48.734;9.112;2023-01-30T03:28:14;15.93;;;10.90;;
9524;SDS011;15940;48.734;9.112;2023-01-30T03:30:45;17.60;;;12.20;;
9524;SDS011;15940;48.734;9.112;2023-01-30T03:33:12;20.70;;;11.83;;
9524;SDS011;15940;48.734;9.112;2023-01-30T03:35:40;17.03;;;11.33;;
9524;SDS011;15940;48.734;9.112;2023-01-30T03:38:08;17.53;;;11.13;;
9524;SDS011;15940;48.734;9.112;2023-01-30T03:40:35;15.20;;;10.30;;
9524;SDS011;15940;48.734;9.112;2023-01-30T03:43:03;16.70;;;10.53;;
9524;SDS011;15940;48.734;9.112;2023-01-30T03:45:29;14.77;;;10.13;;
9524;SDS011;15940;48.734;9.112;2023-01-30T03:47:56;15.70;;;10.17;;
9524;SDS011;15940;48.734;9.112;2023-01-30T03:50:23;15.63;;;10.67;;
9524;SDS011;15940;48.734;9.112;2023-01-30T03:52:52;14.23;;;9.47;;
9524;SDS011;15940;48.734;9.112;2023-01-30T03:55:20;14.00;;;9.97;;
9524;SDS011;15940;48.734;9.112;2023-01-30T03:57:47;14.33;;;10.77;;
9524;SDS011;15940;48.734;9.112;2023-01-30T04:00:14;14.30;;;9.93;;
9524;SDS011;15940;48.734;9.112;2023-01-30T04:02:42;15.97;;;10.17;;
9524;SDS011;15940;48.734;9.112;2023-01-30T04:05:09;14.47;;;9.77;;
9524;SDS011;15940;48.734;9.112;2023-01-30T04:07:36;14.40;;;9.90;;
9524;SDS011;15940;48.734;9.112;2023-01-30T04:10:04;11.97;;;9.03;;
9524;SDS011;15940;48.734;9.112;2023-01-30T04:12:32;11.50;;;8.33;;
9524;SDS011;15940;48.734;9.112;2023-01-30T04:14:59;12.93;;;8.80;;
9524;SDS011;15940;48.734;9.112;2023-01-30T04:17:26;12.73;;;8.57;;
9524;SDS011;15940;48.734;9.112;2023-01-30T04:19:53;13.67;;;8.97;;
9524;SDS011;15940;48.734;9.112;2023-01-30T04:22:20;11.83;;;7.90;;
9524;SDS011;15940;48.734;9.112;2023-01-30T04:24:47;11.73;;;8.43;;
9524;SDS011;15940;48.734;9.112;2023-01-30T04:27:15;11.47;;;8.20;;
9524;SDS011;15940;48.734;9.112;2023-01-30T04:29:42;12.70;;;7.87;;
9524;SDS011;15940;48.734;9.112;2023-01-30T04:32:09;11.70;;;8.43;;
9524;SDS011;15940;48.734;9.112;2023-01-30T04:34:35;11.50;;;8.40;;
9524;SDS011;15940;48.734;9.112;2023-01-30T04:37:02;11.83;;;8.27;;
9524;SDS011;15940;48.734;9.112;2023-01-30T04:39:29;12.80;;;8.20;;
9524;SDS011;15940;48.734;9.112;2023-01-30T04:41:56;11.77;;;7.70;;
9524;SDS011;15940;48.734;9.112;2023-01-30T04:44:24;13.63;;;7.70;;
9524;SDS011;15940;48.734;9.112;2023-01-30T04:46:52;10.43;;;7.87;;
9524;SDS011;15940;48.734;9.112;2023-01-30T04:49:19;12.20;;;8.43;;
9524;SDS011;15940;48.734;9.112;2023-01-30T04:51:46;9.63;;;7.73;;
9524;SDS011;15940;48.734;9.112;2023-01-30T04:54:13;10.97;;;7.90;;
9524;SDS011;15940;48.734;9.112;2023-01-30T04:56:40;10.83;;;8.00;;
9524;SDS011;15940;48.734;9.112;2023-01-30T04:59:06;11.03;;;7.63;;
9524;SDS011;15940;48.734;9.112;2023-01-30T05:01:35;10.50;;;8.03;;
9524;SDS011;15940;48.734;9.112;2023-01-30T05:04:04;11.57;;;8.13;;
9524;SDS011;15940;48.734;9.112;2023-01-30T05:06:32;10.23;;;7.80;;
9524;SDS011;15940;48.734;9.112;2023-01-30T05:09:00;12.13;;;7.93;;
9524;SDS011;15940;48.734;9.112;2023-01-30T05:11:28;13.10;;;8.23;;
9524;SDS011;15940;48.734;9.112;2023-01-30T05:13:56;9.93;;;7.90;;
9524;SDS011;15940;48.734;9.112;2023-01-30T05:16:23;11.47;;;7.93;;
9524;SDS011;15940;48.734;9.112;2023-01-30T05:18:52;11.47;;;8.30;;
9524;SDS011;15940;48.734;9.112;2023-01-30T05:21:19;12.53;;;8.50;;
9524;SDS011;15940;48.734;9.112;2023-01-30T05:23:52;11.10;;;8.23;;
9524;SDS011;15940;48.734;9.112;2023-01-30T05:26:19;12.53;;;7.93;;
9524;SDS011;15940;48.734;9.112;2023-01-30T05:28:49;10.80;;;7.80;;
9524;SDS011;15940;48.734;9.112;2023-01-30T05:31:18;11.27;;;8.13;;
9524;SDS011;15940;48.734;9.112;2023-01-30T05:33:46;10.90;;;8.03;;
9524;SDS011;15940;48.734;9.112;2023-01-30T05:36:17;10.53;;;7.80;;
9524;SDS011;15940;48.734;9.112;2023-01-30T05:38:46;10.10;;;7.83;;
9524;SDS011;15940;48.734;9.112;2023-01-30T05:41:14;11.07;;;8.50;;
9524;SDS011;15940;48.734;9.112;2023-01-30T05:43:41;9.80;;;7.53;;
9524;SDS011;15940;48.734;9.112;2023-01-30T05:46:09;10.83;;;8.00;;
9524;SDS011;15940;48.734;9.112;2023-01-30T05:48:37;9.47;;;7.87;;
9524;SDS011;15940;48.734;9.112;2023-01-30T05:51:04;9.83;;;7.67;;
9524;SDS011;15940;48.734;9.112;2023-01-30T05:53:33;12.27;;;7.93;;
9524;SDS011;15940;48.734;9.112;2023-01-30T05:56:02;11.53;;;7.83;;
9524;SDS011;15940;48.734;9.112;2023-01-30T05:58:31;12.37;;;7.90;;
9524;SDS011;15940;48.734;9.112;2023-01-30T06:00:59;11.77;;;8.20;;
9524;SDS011;15940;48.734;9.112;2023-01-30T06:03:27;11.10;;;8.10;;
9524;SDS011;15940;48.734;9.112;2023-01-30T06:05:53;9.30;;;7.40;;
9524;SDS011;15940;48.734;9.112;2023-01-30T06:08:20;10.63;;;7.40;;
9524;SDS011;15940;48.734;9.112;2023-01-30T06:10:49;11.50;;;7.73;;
9524;SDS011;15940;48.734;9.112;2023-01-30T06:13:16;11.00;;;7.80;;
9524;SDS011;15940;48.734;9.112;2023-01-30T06:15:43;10.50;;;7.67;;
9524;SDS011;15940;48.734;9.112;2023-01-30T06:18:10;11.07;;;8.20;;
9524;SDS011;15940;48.734;9.112;2023-01-30T06:20:37;8.63;;;6.63;;
9524;SDS011;15940;48.734;9.112;2023-01-30T06:23:04;9.27;;;7.20;;
9524;SDS011;15940;48.734;9.112;2023-01-30T06:25:31;10.37;;;7.87;;
9524;SDS011;15940;48.734;9.112;2023-01-30T06:27:59;13.17;;;7.20;;
9524;SDS011;15940;48.734;9.112;2023-01-30T06:30:26;8.47;;;7.30;;
9524;SDS011;15940;48.734;9.112;2023-01-30T06:32:53;9.07;;;7.50;;
9524;SDS011;15940;48.734;9.112;2023-01-30T06:35:20;10.70;;;7.53;;
9524;SDS011;15940;48.734;9.112;2023-01-30T06:37:47;10.67;;;7.50;;
9524;SDS011;15940;48.734;9.112;2023-01-30T06:40:13;9.77;;;7.47;;
9524;SDS011;15940;48.734;9.112;2023-01-30T06:42:44;10.10;;;7.93;;
9524;SDS011;15940;48.734;9.112;2023-01-30T06:45:14;9.43;;;7.50;;
9524;SDS011;15940;48.734;9.112;2023-01-30T06:47:43;9.33;;;7.13;;
9524;SDS011;15940;48.734;9.112;2023-01-30T06:50:12;10.17;;;7.20;;
9524;SDS011;15940;48.734;9.112;2023-01-30T06:52:41;9.17;;;6.87;;
9524;SDS011;15940;48.734;9.112;2023-01-30T06:55:10;10.23;;;7.20;;
9524;SDS011;15940;48.734;9.112;2023-01-30T06:57:39;11.07;;;7.50;;
9524;SDS011;15940;48.734;9.112;2023-01-30T07:00:07;9.87;;;7.20;;
9524;SDS011;15940;48.734;9.112;2023-01-30T07:02:38;10.47;;;7.50;;
9524;SDS011;15940;48.734;9.112;2023-01-30T07:05:06;10.37;;;7.30;;
9524;SDS011;15940;48.734;9.112;2023-01-30T07:07:34;10.67;;;7.60;;
9524;SDS011;15940;48.734;9.112;2023-01-30T07:10:02;9.90;;;7.30;;
9524;SDS011;15940;48.734;9.112;2023-01-30T07:12:31;10.63;;;8.03;;
9524;SDS011;15940;48.734;9.112;2023-01-30T07:14:58;10.27;;;7.40;;
9524;SDS011;15940;48.734;9.112;2023-01-30T07:17:25;10.27;;;7.57;;
9524;SDS011;15940;48.734;9.112;2023-01-30T07:19:53;9.43;;;6.83;;
9524;SDS011;15940;48.734;9.112;2023-01-30T07:22:20;9.97;;;7.10;;
9524;SDS011;15940;48.734;9.112;2023-01-30T07:24:47;9.80;;;7.53;;
9524;SDS011;15940;48.734;9.112;2023-01-30T07:27:14;9.00;;;6.87;;
9524;SDS011;15940;48.734;9.112;2023-01-30T07:29:41;10.97;;;7.50;;
9524;SDS011;15940;48.734;9.112;2023-01-30T07:32:10;9.77;;;7.40;;
9524;SDS011;15940;48.734;9.112;2023-01-30T07:34:42;8.73;;;6.87;;
9524;SDS011;15940;48.734;9.112;2023-01-30T07:37:10;9.73;;;7.07;;
9524;SDS011;15940;48.734;9.112;2023-01-30T07:39:37;9.23;;;6.97;;
9524;SDS011;15940;48.734;9.112;2023-01-30T07:42:04;7.97;;;6.23;;
9524;SDS011;15940;48.734;9.112;2023-01-30T07:44:31;9.23;;;7.13;;
9524;SDS011;15940;48.734;9.112;2023-01-30T07:46:58;9.57;;;7.10;;
9524;SDS011;15940;48.734;9.112;2023-01-30T07:49:25;9.20;;;6.83;;
9524;SDS011;15940;48.734;9.112;2023-01-30T07:51:52;9.23;;;6.57;;
9524;SDS011;15940;48.734;9.112;2023-01-30T07:54:20;9.63;;;7.13;;
9524;SDS011;15940;48.734;9.112;2023-01-30T07:56:47;9.40;;;6.57;;
9524;SDS011;15940;48.734;9.112;2023-01-30T07:59:14;7.80;;;5.97;;
9524;SDS011;15940;48.734;9.112;2023-01-30T08:01:41;8.40;;;6.30;;
9524;SDS011;15940;48.734;9.112;2023-01-30T08:04:08;10.33;;;6.87;;
9524;SDS011;15940;48.734;9.112;2023-01-30T08:06:35;8.77;;;6.60;;
9524;SDS011;15940;48.734;9.112;2023-01-30T08:09:03;8.90;;;6.77;;
9524;SDS011;15940;48.734;9.112;2023-01-30T08:11:32;8.37;;;6.37;;
9524;SDS011;15940;48.734;9.112;2023-01-30T08:14:00;8.07;;;6.10;;
9524;SDS011;15940;48.734;9.112;2023-01-30T08:16:27;7.70;;;6.17;;
9524;SDS011;15940;48.734;9.112;2023-01-30T08:18:56;9.10;;;6.67;;
9524;SDS011;15940;48.734;9.112;2023-01-30T08:21:23;8.63;;;6.27;;
9524;SDS011;15940;48.734;9.112;2023-01-30T08:23:50;9.70;;;6.30;;
9524;SDS011;15940;48.734;9.112;2023-01-30T08:26:17;9.43;;;7.00;;
9524;SDS011;15940;48.734;9.112;2023-01-30T08:28:46;11.10;;;7.20;;
9524;SDS011;15940;48.734;9.112;2023-01-30T08:31:13;9.33;;;6.17;;
9524;SDS011;15940;48.734;9.112;2023-01-30T08:33:41;8.73;;;6.67;;
9524;SDS011;15940;48.734;9.112;2023-01-30T08:36:09;8.13;;;6.60;;
9524;SDS011;15940;48.734;9.112;2023-01-30T08:38:36;8.33;;;6.47;;
9524;SDS011;15940;48.734;9.112;2023-01-30T08:41:03;11.77;;;6.73;;
9524;SDS011;15940;48.734;9.112;2023-01-30T08:43:32;10.97;;;6.47;;
9524;SDS011;15940;48.734;9.112;2023-01-30T08:46:01;10.00;;;6.57;;
9524;SDS011;15940;48.734;9.112;2023-01-30T08:48:28;8.57;;;6.50;;
9524;SDS011;15940;48.734;9.112;2023-01-30T08:50:55;10.17;;;6.43;;
9524;SDS011;15940;48.734;9.112;2023-01-30T08:53:22;9.87;;;6.13;;
9524;SDS011;15940;48.734;9.112;2023-01-30T08:55:49;7.80;;;6.30;;
9524;SDS011;15940;48.734;9.112;2023-01-30T08:58:17;8.27;;;6.13;;
9524;SDS011;15940;48.734;9.112;2023-01-30T09:00:44;7.80;;;6.13;;
9524;SDS011;15940;48.734;9.112;2023-01-30T09:03:13;7.60;;;6.00;;
9524;SDS011;15940;48.734;9.112;2023-01-30T09:05:41;8.37;;;6.00;;
9524;SDS011;15940;48.734;9.112;2023-01-30T09:08:08;8.57;;;6.40;;
9524;SDS011;15940;48.734;9.112;2023-01-30T09:10:35;8.87;;;6.30;;
9524;SDS011;15940;48.734;9.112;2023-01-30T09:13:02;6.20;;;5.47;;
9524;SDS011;15940;48.734;9.112;2023-01-30T09:15:29;10.53;;;6.47;;
9524;SDS011;15940;48.734;9.112;2023-01-30T09:17:57;8.70;;;6.17;;
9524;SDS011;15940;48.734;9.112;2023-01-30T09:20:25;7.00;;;6.30;;
9524;SDS011;15940;48.734;9.112;2023-01-30T09:22:52;10.00;;;6.53;;
9524;SDS011;15940;48.734;9.112;2023-01-30T09:25:19;9.20;;;5.83;;
9524;SDS011;15940;48.734;9.112;2023-01-30T09:27:47;8.23;;;5.53;;
9524;SDS011;15940;48.734;9.112;2023-01-30T09:30:15;7.40;;;5.50;;
9524;SDS011;15940;48.734;9.112;2023-01-30T09:32:42;6.57;;;5.23;;
9524;SDS011;15940;48.734;9.112;2023-01-30T09:35:09;7.37;;;5.20;;
9524;SDS011;15940;48.734;9.112;2023-01-30T09:37:38;6.40;;;4.80;;
9524;SDS011;15940;48.734;9.112;2023-01-30T09:40:13;5.93;;;5.00;;
9524;SDS011;15940;48.734;9.112;2023-01-30T09:45:43;7.23;;;4.83;;
9524;SDS011;15940;48.734;9.112;2023-01-30T09:48:19;6.57;;;4.07;;
9524;SDS011;15940;48.734;9.112;2023-01-30T09:54:03;5.10;;;4.60;;
9524;SDS011;15940;48.734;9.112;2023-01-30T09:56:48;4.80;;;4.03;;
9524;SDS011;15940;48.734;9.112;2023-01-30T09:59:24;6.43;;;4.60;;
9524;SDS011;15940;48.734;9.112;2023-01-30T10:02:05;5.40;;;4.57;;
9524;SDS011;15940;48.734;9.112;2023-01-30T10:04:52;5.47;;;4.57;;
9524;SDS011;15940;48.734;9.112;2023-01-30T10:07:22;5.57;;;4.50;;
9524;SDS011;15940;48.734;9.112;2023-01-30T10:10:00;5.70;;;3.67;;
9524;SDS011;15940;48.734;9.112;2023-01-30T10:12:37;4.80;;;3.87;;
9524;SDS011;15940;48.734;9.112;2023-01-30T10:15:21;3.93;;;3.50;;
9524;SDS011;15940;48.734;9.112;2023-01-30T10:18:08;5.03;;;4.00;;
9524;SDS011;15940;48.734;9.112;2023-01-30T10:21:03;4.30;;;3.40;;
9524;SDS011;15940;48.734;9.112;2023-01-30T10:23:54;4.30;;;3.40;;
9524;SDS011;15940;48.734;9.112;2023-01-30T10:26:34;4.70;;;3.03;;
9524;SDS011;15940;48.734;9.112;2023-01-30T10:29:02;5.17;;;3.50;;
9524;SDS011;15940;48.734;9.112;2023-01-30T10:31:38;3.20;;;2.87;;
9524;SDS011;15940;48.734;9.112;2023-01-30T10:34:10;2.93;;;2.73;;
9524;SDS011;15940;48.734;9.112;2023-01-30T10:36:45;4.70;;;3.10;;
9524;SDS011;15940;48.734;9.112;2023-01-30T10:39:21;3.63;;;2.97;;
9524;SDS011;15940;48.734;9.112;2023-01-30T10:42:01;3.13;;;2.77;;
9524;SDS011;15940;48.734;9.112;2023-01-30T10:44:34;3.40;;;2.80;;
9524;SDS011;15940;48.734;9.112;2023-01-30T10:47:06;2.90;;;2.60;;
9524;SDS011;15940;48.734;9.112;2023-01-30T10:49:57;3.03;;;2.73;;
9524;SDS011;15940;48.734;9.112;2023-01-30T10:52:40;3.43;;;2.50;;
9524;SDS011;15940;48.734;9.112;2023-01-30T10:55:22;3.17;;;2.40;;
9524;SDS011;15940;48.734;9.112;2023-01-30T10:58:02;2.63;;;2.37;;
9524;SDS011;15940;48.734;9.112;2023-01-30T11:00:39;2.97;;;2.27;;
9524;SDS011;15940;48.734;9.112;2023-01-30T11:03:19;4.23;;;2.50;;
9524;SDS011;15940;48.734;9.112;2023-01-30T11:05:53;4.17;;;2.90;;
9524;SDS011;15940;48.734;9.112;2023-01-30T11:08:25;2.70;;;2.50;;
9524;SDS011;15940;48.734;9.112;2023-01-30T11:10:54;2.67;;;2.47;;
9524;SDS011;15940;48.734;9.112;2023-01-30T11:13:26;3.17;;;2.93;;
9524;SDS011;15940;48.734;9.112;2023-01-30T11:15:55;2.80;;;2.60;;
9524;SDS011;15940;48.734;9.112;2023-01-30T11:18:24;3.17;;;2.80;;
9524;SDS011;15940;48.734;9.112;2023-01-30T11:20:57;4.90;;;2.93;;
9524;SDS011;15940;48.734;9.112;2023-01-30T11:23:38;3.47;;;3.10;;
9524;SDS011;15940;48.734;9.112;2023-01-30T11:26:11;3.87;;;3.57;;
9524;SDS011;15940;48.734;9.112;2023-01-30T11:28:47;6.87;;;3.97;;
9524;SDS011;15940;48.734;9.112;2023-01-30T11:31:18;4.00;;;3.17;;
9524;SDS011;15940;48.734;9.112;2023-01-30T11:33:57;3.67;;;3.37;;
9524;SDS011;15940;48.734;9.112;2023-01-30T11:36:28;4.03;;;3.63;;
9524;SDS011;15940;48.734;9.112;2023-01-30T11:38:58;4.57;;;3.80;;
9524;SDS011;15940;48.734;9.112;2023-01-30T11:41:28;3.30;;;3.00;;
9524;SDS011;15940;48.734;9.112;2023-01-30T11:44:01;3.50;;;3.20;;
9524;SDS011;15940;48.734;9.112;2023-01-30T11:46:32;4.43;;;3.53;;
9524;SDS011;15940;48.734;9.112;2023-01-30T11:49:03;5.07;;;3.43;;
9524;SDS011;15940;48.734;9.112;2023-01-30T11:51:37;4.50;;;3.80;;
9524;SDS011;15940;48.734;9.112;2023-01-30T11:54:06;3.63;;;3.20;;
9524;SDS011;15940;48.734;9.112;2023-01-30T11:56:39;3.83;;;3.43;;
9524;SDS011;15940;48.734;9.112;2023-01-30T11:59:18;4.27;;;3.60;;
9524;SDS011;15940;48.734;9.112;2023-01-30T12:01:51;5.30;;;4.07;;
9524;SDS011;15940;48.734;9.112;2023-01-30T12:04:26;5.70;;;3.60;;
9524;SDS011;15940;48.734;9.112;2023-01-30T12:07:03;4.30;;;3.90;;
9524;SDS011;15940;48.734;9.112;2023-01-30T12:09:33;4.30;;;3.90;;
9524;SDS011;15940;48.734;9.112;2023-01-30T12:12:02;5.50;;;3.83;;
9524;SDS011;15940;48.734;9.112;2023-01-30T12:14:53;3.63;;;3.33;;
9524;SDS011;15940;48.734;9.112;2023-01-30T12:17:32;3.67;;;3.30;;
9524;SDS011;15940;48.734;9.112;2023-01-30T12:20:13;5.07;;;3.97;;
9524;SDS011;15940;48.734;9.112;2023-01-30T12:22:51;3.93;;;3.47;;
9524;SDS011;15940;48.734;9.112;2023-01-30T12:25:30;3.80;;;3.37;;
9524;SDS011;15940;48.734;9.112;2023-01-30T12:28:08;5.00;;;4.20;;
9524;SDS011;15940;48.734;9.112;2023-01-30T12:30:43;4.13;;;3.50;;
9524;SDS011;15940;48.734;9.112;2023-01-30T12:33:16;7.17;;;4.70;;
9524;SDS011;15940;48.734;9.112;2023-01-30T12:35:46;5.27;;;4.30;;
9524;SDS011;15940;48.734;9.112;2023-01-30T12:38:30;4.23;;;3.83;;
9524;SDS011;15940;48.734;9.112;2023-01-30T12:41:14;6.17;;;4.20;;
9524;SDS011;15940;48.734;9.112;2023-01-30T12:44:02;6.60;;;4.30;;
9524;SDS011;15940;48.734;9.112;2023-01-30T12:46:55;4.73;;;4.00;;
9524;SDS011;15940;48.734;9.112;2023-01-30T12:49:39;4.57;;;4.03;;
9524;SDS011;15940;48.734;9.112;2023-01-30T12:55:21;5.13;;;4.07;;
9524;SDS011;15940;48.734;9.112;2023-01-30T12:58:01;5.70;;;4.30;;
9524;SDS011;15940;48.734;9.112;2023-01-30T13:00:43;5.63;;;4.40;;
9524;SDS011;15940;48.734;9.112;2023-01-30T13:03:28;5.20;;;4.10;;
9524;SDS011;15940;48.734;9.112;2023-01-30T13:06:06;4.97;;;4.13;;
9524;SDS011;15940;48.734;9.112;2023-01-30T13:08:52;5.33;;;4.83;;
9524;SDS011;15940;48.734;9.112;2023-01-30T13:11:36;4.40;;;4.00;;
9524;SDS011;15940;48.734;9.112;2023-01-30T13:14:16;7.23;;;5.10;;
9524;SDS011;15940;48.734;9.112;2023-01-30T13:16:55;6.37;;;4.80;;
9524;SDS011;15940;48.734;9.112;2023-01-30T13:19:41;5.93;;;4.53;;
9524;SDS011;15940;48.734;9.112;2023-01-30T13:22:15;5.30;;;4.57;;
9524;SDS011;15940;48.734;9.112;2023-01-30T13:24:51;7.50;;;4.90;;
9524;SDS011;15940;48.734;9.112;2023-01-30T13:27:27;5.47;;;4.63;;
9524;SDS011;15940;48.734;9.112;2023-01-30T13:29:59;6.70;;;4.50;;
9524;SDS011;15940;48.734;9.112;2023-01-30T13:32:32;6.00;;;5.10;;
9524;SDS011;15940;48.734;9.112;2023-01-30T13:35:09;7.43;;;4.87;;
9524;SDS011;15940;48.734;9.112;2023-01-30T13:37:42;10.63;;;5.20;;
9524;SDS011;15940;48.734;9.112;2023-01-30T13:40:15;6.37;;;4.93;;
9524;SDS011;15940;48.734;9.112;2023-01-30T13:42:45;8.97;;;5.20;;
9524;SDS011;15940;48.734;9.112;2023-01-30T13:45:19;8.37;;;5.13;;
9524;SDS011;15940;48.734;9.112;2023-01-30T13:47:52;5.10;;;4.53;;
9524;SDS011;15940;48.734;9.112;2023-01-30T13:50:39;9.27;;;5.23;;
9524;SDS011;15940;48.734;9.112;2023-01-30T13:53:18;12.57;;;5.50;;
9524;SDS011;15940;48.734;9.112;2023-01-30T13:55:54;9.70;;;5.30;;
9524;SDS011;15940;48.734;9.112;2023-01-30T13:58:33;9.30;;;4.90;;
9524;SDS011;15940;48.734;9.112;2023-01-30T14:01:09;7.70;;;4.60;;
9524;SDS011;15940;48.734;9.112;2023-01-30T14:03:37;6.80;;;4.87;;
9524;SDS011;15940;48.734;9.112;2023-01-30T14:09:16;6.03;;;4.60;;
9524;SDS011;15940;48.734;9.112;2023-01-30T14:11:55;8.60;;;4.17;;
9524;SDS011;15940;48.734;9.112;2023-01-30T14:14:26;6.87;;;3.90;;
9524;SDS011;15940;48.734;9.112;2023-01-30T14:16:57;7.70;;;3.97;;
9524;SDS011;15940;48.734;9.112;2023-01-30T14:19:39;6.10;;;3.50;;
9524;SDS011;15940;48.734;9.112;2023-01-30T14:22:19;5.63;;;3.20;;
9524;SDS011;15940;48.734;9.112;2023-01-30T14:40:37;5.77;;;3.20;;
9524;SDS011;15940;48.734;9.112;2023-01-30T14:43:34;2.30;;;2.10;;
9524;SDS011;15940;48.734;9.112;2023-01-30T14:49:16;6.77;;;2.43;;
9524;SDS011;15940;48.734;9.112;2023-01-30T14:51:50;4.93;;;2.50;;
9524;SDS011;15940;48.734;9.112;2023-01-30T14:54:22;3.53;;;2.20;;
9524;SDS011;15940;48.734;9.112;2023-01-30T14:57:15;4.17;;;2.53;;
9524;SDS011;15940;48.734;9.112;2023-01-30T14:59:47;2.63;;;2.13;;
9524;SDS011;15940;48.734;9.112;2023-01-30T15:02:18;3.63;;;2.67;;
9524;SDS011;15940;48.734;9.112;2023-01-30T15:04:55;3.03;;;2.63;;
9524;SDS011;15940;48.734;9.112;2023-01-30T15:07:31;7.07;;;3.10;;
9524;SDS011;15940;48.734;9.112;2023-01-30T15:10:10;3.27;;;2.83;;
9524;SDS011;15940;48.734;9.112;2023-01-30T15:13:04;2.83;;;2.63;;
9524;SDS011;15940;48.734;9.112;2023-01-30T15:15:49;7.27;;;2.80;;
9524;SDS011;15940;48.734;9.112;2023-01-30T15:24:36;5.43;;;3.37;;
9524;SDS011;15940;48.734;9.112;2023-01-30T15:27:32;6.80;;;3.53;;
9524;SDS011;15940;48.734;9.112;2023-01-30T15:30:15;4.57;;;3.33;;
9524;SDS011;15940;48.734;9.112;2023-01-30T15:32:49;3.87;;;3.17;;
9524;SDS011;15940;48.734;9.112;2023-01-30T15:35:38;5.00;;;3.90;;
9524;SDS011;15940;48.734;9.112;2023-01-30T15:38:16;5.70;;;3.40;;
9524;SDS011;15940;48.734;9.112;2023-01-30T15:40:51;6.57;;;3.57;;
9524;SDS011;15940;48.734;9.112;2023-01-30T15:46:22;8.40;;;4.10;;
9524;SDS011;15940;48.734;9.112;2023-01-30T15:49:01;5.30;;;3.77;;
9524;SDS011;15940;48.734;9.112;2023-01-30T15:51:47;6.10;;;4.63;;
9524;SDS011;15940;48.734;9.112;2023-01-30T15:54:15;5.30;;;4.07;;
9524;SDS011;15940;48.734;9.112;2023-01-30T15:56:45;5.80;;;3.80;;
9524;SDS011;15940;48.734;9.112;2023-01-30T15:59:23;5.63;;;3.60;;
9524;SDS011;15940;48.734;9.112;2023-01-30T16:01:57;5.97;;;4.23;;
9524;SDS011;15940;48.734;9.112;2023-01-30T16:04:28;6.33;;;4.70;;
9524;SDS011;15940;48.734;9.112;2023-01-30T16:06:55;6.63;;;4.87;;
9524;SDS011;15940;48.734;9.112;2023-01-30T16:09:22;6.47;;;4.77;;
9524;SDS011;15940;48.734;9.112;2023-01-30T16:11:50;6.00;;;4.80;;
9524;SDS011;15940;48.734;9.112;2023-01-30T16:14:20;5.13;;;3.57;;